sensor_id;sensor_type;location;lat;lon;timestamp;pressure;altitude;pressure_sealevel;temperature;humidity
11936;BME280;6027;48.576;9.180;2023-04-30T00:01:46;97097.13;;;12.23;100.00
11936;BME280;6027;48.576;9.180;2023-04-30T00:04:12;97104.25;;;12.22;100.00
11936;BME280;6027;48.576;9.180;2023-04-30T00:06:37;97104.28;;;12.07;100.00
11936;BME280;6027;48.576;9.180;2023-04-30T00:09:02;97106.00;;;12.15;100.00
11936;BME280;6027;48.576;9.180;2023-04-30T00:11:28;97114.97;;;12.14;100.00
11936;BME280;6027;48.576;9.180;2023-04-30T00:13:53;97113.91;;;11.94;100.00
11936;BME280;6027;48.576;9.180;2023-04-30T00:16:21;97124.59;;;12.00;100.00
11936;BME280;6027;48.576;9.180;2023-04-30T00:18:46;97118.47;;;12.00;100.00
11936;BME280;6027;48.576;9.180;2023-04-30T00:21:12;97116.28;;;12.03;100.00
11936;BME280;6027;48.576;9.180;2023-04-30T00:23:37;97120.31;;;11.99;100.00
11936;BME280;6027;48.576;9.180;2023-04-30T00:26:03;97122.41;;;12.04;100.00
11936;BME280;6027;48.576;9.180;2023-04-30T00:28:28;97116.91;;;12.05;100.00
11936;BME280;6027;48.576;9.180;2023-04-30T00:30:54;97120.31;;;11.99;100.00
11936;BME280;6027;48.576;9.180;2023-04-30T00:33:19;97115.53;;;11.95;100.00
11936;BME280;6027;48.576;9.180;2023-04-30T00:35:45;97120.47;;;11.98;100.00
11936;BME280;6027;48.576;9.180;2023-04-30T00:38:11;97114.66;;;11.88;100.00
11936;BME280;6027;48.576;9.180;2023-04-30T00:40:37;97110.16;;;11.88;100.00
11936;BME280;6027;48.576;9.180;2023-04-30T00:43:02;97119.03;;;11.81;100.00
11936;BME280;6027;48.576;9.180;2023-04-30T00:45:28;97118.22;;;11.80;100.00
11936;BME280;6027;48.576;9.180;2023-04-30T00:47:53;97123.53;;;11.80;100.00
11936;BME280;6027;48.576;9.180;2023-04-30T00:50:19;97115.25;;;11.75;100.00
11936;BME280;6027;48.576;9.180;2023-04-30T00:57:40;97106.47;;;11.74;100.00
11936;BME280;6027;48.576;9.180;2023-04-30T01:00:06;97125.44;;;11.86;100.00
11936;BME280;6027;48.576;9.180;2023-04-30T01:02:38;97125.25;;;11.88;100.00
11936;BME280;6027;48.576;9.180;2023-04-30T01:05:03;97126.34;;;11.79;100.00
11936;BME280;6027;48.576;9.180;2023-04-30T01:07:30;97124.97;;;11.83;100.00
11936;BME280;6027;48.576;9.180;2023-04-30T01:09:56;97120.97;;;11.87;100.00
11936;BME280;6027;48.576;9.180;2023-04-30T01:18:22;97117.28;;;11.73;100.00
11936;BME280;6027;48.576;9.180;2023-04-30T01:20:53;97121.56;;;11.59;100.00
11936;BME280;6027;48.576;9.180;2023-04-30T01:24:01;97120.47;;;11.68;100.00
11936;BME280;6027;48.576;9.180;2023-04-30T01:26:52;97117.72;;;11.62;100.00
11936;BME280;6027;48.576;9.180;2023-04-30T01:29:18;97112.97;;;11.57;100.00
11936;BME280;6027;48.576;9.180;2023-04-30T01:31:44;97110.41;;;11.64;100.00
11936;BME280;6027;48.576;9.180;2023-04-30T01:34:10;97113.16;;;11.70;100.00
11936;BME280;6027;48.576;9.180;2023-04-30T01:40:02;97120.38;;;11.62;100.00
11936;BME280;6027;48.576;9.180;2023-04-30T01:42:51;97118.38;;;11.64;100.00
11936;BME280;6027;48.576;9.180;2023-04-30T01:48:28;97123.97;;;11.54;100.00
11936;BME280;6027;48.576;9.180;2023-04-30T01:51:18;97119.38;;;11.48;100.00
11936;BME280;6027;48.576;9.180;2023-04-30T01:53:45;97121.03;;;11.49;100.00
11936;BME280;6027;48.576;9.180;2023-04-30T01:56:35;97111.31;;;11.41;100.00
11936;BME280;6027;48.576;9.180;2023-04-30T01:59:04;97113.25;;;11.48;100.00
11936;BME280;6027;48.576;9.180;2023-04-30T02:01:31;97113.97;;;11.41;100.00
11936;BME280;6027;48.576;9.180;2023-04-30T02:03:57;97113.97;;;11.41;100.00
11936;BME280;6027;48.576;9.180;2023-04-30T02:06:24;97115.06;;;11.32;100.00
11936;BME280;6027;48.576;9.180;2023-04-30T02:08:58;97111.50;;;11.40;100.00
11936;BME280;6027;48.576;9.180;2023-04-30T02:11:28;97115.50;;;11.36;100.00
11936;BME280;6027;48.576;9.180;2023-04-30T02:13:53;97106.19;;;11.40;100.00
11936;BME280;6027;48.576;9.180;2023-04-30T02:16:18;97110.31;;;11.42;100.00
11936;BME280;6027;48.576;9.180;2023-04-30T02:18:44;97116.53;;;11.50;100.00
11936;BME280;6027;48.576;9.180;2023-04-30T02:21:10;97109.94;;;11.46;100.00
11936;BME280;6027;48.576;9.180;2023-04-30T02:23:35;97108.47;;;11.43;100.00
11936;BME280;6027;48.576;9.180;2023-04-30T02:26:01;97116.97;;;11.38;100.00
11936;BME280;6027;48.576;9.180;2023-04-30T02:28:27;97114.78;;;11.27;100.00
11936;BME280;6027;48.576;9.180;2023-04-30T02:30:53;97112.19;;;11.19;100.00
11936;BME280;6027;48.576;9.180;2023-04-30T02:33:18;97109.63;;;11.11;100.00
11936;BME280;6027;48.576;9.180;2023-04-30T02:35:44;97106.81;;;11.13;100.00
11936;BME280;6027;48.576;9.180;2023-04-30T02:38:09;97107.25;;;11.16;100.00
11936;BME280;6027;48.576;9.180;2023-04-30T02:40:35;97110.94;;;11.15;100.00
11936;BME280;6027;48.576;9.180;2023-04-30T02:43:00;97108.38;;;11.22;100.00
11936;BME280;6027;48.576;9.180;2023-04-30T02:45:26;97111.47;;;11.11;100.00
11936;BME280;6027;48.576;9.180;2023-04-30T02:47:51;97108.81;;;11.11;100.00
11936;BME280;6027;48.576;9.180;2023-04-30T02:50:16;97103.34;;;11.12;100.00
11936;BME280;6027;48.576;9.180;2023-04-30T02:52:44;97109.16;;;11.07;100.00
11936;BME280;6027;48.576;9.180;2023-04-30T02:55:10;97102.34;;;11.13;100.00
11936;BME280;6027;48.576;9.180;2023-04-30T02:57:35;97112.47;;;11.10;100.00
11936;BME280;6027;48.576;9.180;2023-04-30T03:00:01;97108.50;;;11.05;100.00
11936;BME280;6027;48.576;9.180;2023-04-30T03:02:26;97119.59;;;11.09;100.00
11936;BME280;6027;48.576;9.180;2023-04-30T03:04:52;97119.75;;;11.07;100.00
11936;BME280;6027;48.576;9.180;2023-04-30T03:07:17;97112.53;;;11.01;100.00
11936;BME280;6027;48.576;9.180;2023-04-30T03:09:42;97109.22;;;10.99;100.00
11936;BME280;6027;48.576;9.180;2023-04-30T03:12:08;97109.84;;;10.87;100.00
11936;BME280;6027;48.576;9.180;2023-04-30T03:14:34;97118.91;;;10.92;100.00
11936;BME280;6027;48.576;9.180;2023-04-30T03:16:59;97127.72;;;10.85;100.00
11936;BME280;6027;48.576;9.180;2023-04-30T03:19:25;97126.44;;;10.81;100.00
11936;BME280;6027;48.576;9.180;2023-04-30T03:21:50;97120.56;;;10.70;100.00
11936;BME280;6027;48.576;9.180;2023-04-30T03:24:17;97119.03;;;10.76;100.00
11936;BME280;6027;48.576;9.180;2023-04-30T03:26:42;97121.31;;;10.79;100.00
11936;BME280;6027;48.576;9.180;2023-04-30T03:29:08;97114.19;;;10.80;100.00
11936;BME280;6027;48.576;9.180;2023-04-30T03:31:33;97108.66;;;10.89;100.00
11936;BME280;6027;48.576;9.180;2023-04-30T03:33:58;97111.84;;;10.85;100.00
11936;BME280;6027;48.576;9.180;2023-04-30T03:36:24;97109.72;;;10.80;100.00
11936;BME280;6027;48.576;9.180;2023-04-30T03:38:49;97107.63;;;10.76;100.00
11936;BME280;6027;48.576;9.180;2023-04-30T03:41:14;97097.06;;;10.67;100.00
11936;BME280;6027;48.576;9.180;2023-04-30T03:43:40;97105.97;;;10.75;100.00
11936;BME280;6027;48.576;9.180;2023-04-30T03:46:05;97106.16;;;10.73;100.00
11936;BME280;6027;48.576;9.180;2023-04-30T03:48:31;97112.09;;;10.75;100.00
11936;BME280;6027;48.576;9.180;2023-04-30T03:50:56;97103.38;;;10.66;100.00
11936;BME280;6027;48.576;9.180;2023-04-30T03:53:22;97094.78;;;10.64;100.00
11936;BME280;6027;48.576;9.180;2023-04-30T03:55:48;97095.44;;;10.66;100.00
11936;BME280;6027;48.576;9.180;2023-04-30T03:58:14;97091.66;;;10.61;100.00
11936;BME280;6027;48.576;9.180;2023-04-30T04:00:40;97096.78;;;10.62;100.00
11936;BME280;6027;48.576;9.180;2023-04-30T04:03:06;97096.72;;;10.48;100.00
11936;BME280;6027;48.576;9.180;2023-04-30T04:05:31;97102.66;;;10.50;100.00
11936;BME280;6027;48.576;9.180;2023-04-30T04:07:57;97093.91;;;10.49;100.00
11936;BME280;6027;48.576;9.180;2023-04-30T04:10:22;97096.19;;;10.52;100.00
11936;BME280;6027;48.576;9.180;2023-04-30T04:12:47;97101.88;;;10.41;100.00
11936;BME280;6027;48.576;9.180;2023-04-30T04:15:13;97102.19;;;10.46;100.00
11936;BME280;6027;48.576;9.180;2023-04-30T04:17:38;97109.00;;;10.41;100.00
11936;BME280;6027;48.576;9.180;2023-04-30T04:20:04;97112.78;;;10.46;100.00
11936;BME280;6027;48.576;9.180;2023-04-30T04:22:30;97116.56;;;10.52;100.00
11936;BME280;6027;48.576;9.180;2023-04-30T04:24:56;97112.13;;;10.44;100.00
11936;BME280;6027;48.576;9.180;2023-04-30T04:27:21;97116.84;;;10.34;100.00
11936;BME280;6027;48.576;9.180;2023-04-30T04:29:47;97123.72;;;10.43;100.00
11936;BME280;6027;48.576;9.180;2023-04-30T04:34:40;97123.59;;;10.36;100.00
11936;BME280;6027;48.576;9.180;2023-04-30T04:37:07;97122.25;;;10.41;100.00
11936;BME280;6027;48.576;9.180;2023-04-30T04:39:32;97125.25;;;10.37;100.00
11936;BME280;6027;48.576;9.180;2023-04-30T04:41:58;97128.44;;;10.33;100.00
11936;BME280;6027;48.576;9.180;2023-04-30T04:44:23;97127.25;;;10.35;100.00
11936;BME280;6027;48.576;9.180;2023-04-30T04:46:48;97132.38;;;10.37;100.00
11936;BME280;6027;48.576;9.180;2023-04-30T04:49:18;97135.84;;;10.37;100.00
11936;BME280;6027;48.576;9.180;2023-04-30T04:51:43;97133.38;;;10.36;100.00
11936;BME280;6027;48.576;9.180;2023-04-30T04:54:09;97139.19;;;10.31;100.00
11936;BME280;6027;48.576;9.180;2023-04-30T04:56:34;97143.13;;;10.35;100.00
11936;BME280;6027;48.576;9.180;2023-04-30T04:59:00;97140.16;;;10.38;100.00
11936;BME280;6027;48.576;9.180;2023-04-30T05:01:25;97137.84;;;10.35;100.00
11936;BME280;6027;48.576;9.180;2023-04-30T05:03:51;97133.09;;;10.23;100.00
11936;BME280;6027;48.576;9.180;2023-04-30T05:06:17;97130.41;;;10.31;100.00
11936;BME280;6027;48.576;9.180;2023-04-30T05:08:43;97134.56;;;10.25;100.00
11936;BME280;6027;48.576;9.180;2023-04-30T05:11:08;97136.03;;;10.36;100.00
11936;BME280;6027;48.576;9.180;2023-04-30T05:13:34;97137.66;;;10.37;100.00
11936;BME280;6027;48.576;9.180;2023-04-30T05:16:00;97136.06;;;10.28;100.00
11936;BME280;6027;48.576;9.180;2023-04-30T05:18:25;97131.91;;;10.33;100.00
11936;BME280;6027;48.576;9.180;2023-04-30T05:20:50;97138.50;;;10.37;100.00
11936;BME280;6027;48.576;9.180;2023-04-30T05:23:16;97137.84;;;10.35;100.00
11936;BME280;6027;48.576;9.180;2023-04-30T05:25:41;97132.22;;;10.38;100.00
11936;BME280;6027;48.576;9.180;2023-04-30T05:28:07;97130.25;;;10.32;100.00
11936;BME280;6027;48.576;9.180;2023-04-30T05:30:33;97132.47;;;10.44;100.00
11936;BME280;6027;48.576;9.180;2023-04-30T05:32:58;97129.25;;;10.33;100.00
11936;BME280;6027;48.576;9.180;2023-04-30T05:35:24;97128.91;;;10.36;100.00
11936;BME280;6027;48.576;9.180;2023-04-30T05:37:50;97127.53;;;10.41;100.00
11936;BME280;6027;48.576;9.180;2023-04-30T05:40:15;97134.88;;;10.30;100.00
11936;BME280;6027;48.576;9.180;2023-04-30T05:42:41;97131.56;;;10.36;100.00
11936;BME280;6027;48.576;9.180;2023-04-30T05:45:09;97127.72;;;10.39;100.00
11936;BME280;6027;48.576;9.180;2023-04-30T05:47:35;97124.06;;;10.40;100.00
11936;BME280;6027;48.576;9.180;2023-04-30T05:50:00;97132.31;;;10.45;100.00
11936;BME280;6027;48.576;9.180;2023-04-30T05:52:25;97131.13;;;10.48;100.00
11936;BME280;6027;48.576;9.180;2023-04-30T05:54:51;97124.09;;;10.63;100.00
11936;BME280;6027;48.576;9.180;2023-04-30T05:57:16;97129.72;;;10.60;100.00
11936;BME280;6027;48.576;9.180;2023-04-30T05:59:42;97125.63;;;10.57;100.00
11936;BME280;6027;48.576;9.180;2023-04-30T06:02:08;97131.38;;;10.61;100.00
11936;BME280;6027;48.576;9.180;2023-04-30T06:04:33;97127.03;;;10.68;100.00
11936;BME280;6027;48.576;9.180;2023-04-30T06:06:58;97130.69;;;10.67;100.00
11936;BME280;6027;48.576;9.180;2023-04-30T06:09:24;97135.63;;;10.70;100.00
11936;BME280;6027;48.576;9.180;2023-04-30T06:11:49;97135.28;;;10.73;100.00
11936;BME280;6027;48.576;9.180;2023-04-30T06:14:17;97139.41;;;10.76;100.00
11936;BME280;6027;48.576;9.180;2023-04-30T06:16:43;97129.91;;;10.81;100.00
11936;BME280;6027;48.576;9.180;2023-04-30T06:19:09;97135.19;;;10.81;100.00
11936;BME280;6027;48.576;9.180;2023-04-30T06:21:35;97139.16;;;10.85;100.00
11936;BME280;6027;48.576;9.180;2023-04-30T06:24:00;97130.31;;;10.93;100.00
11936;BME280;6027;48.576;9.180;2023-04-30T06:26:26;97129.16;;;10.95;100.00
11936;BME280;6027;48.576;9.180;2023-04-30T06:28:51;97133.16;;;10.91;100.00
11936;BME280;6027;48.576;9.180;2023-04-30T06:31:17;97145.41;;;10.92;100.00
11936;BME280;6027;48.576;9.180;2023-04-30T06:33:42;97129.78;;;10.97;100.00
11936;BME280;6027;48.576;9.180;2023-04-30T06:36:08;97141.19;;;10.98;100.00
11936;BME280;6027;48.576;9.180;2023-04-30T06:38:33;97129.53;;;11.07;100.00
11936;BME280;6027;48.576;9.180;2023-04-30T06:40:58;97129.28;;;11.17;100.00
11936;BME280;6027;48.576;9.180;2023-04-30T06:43:24;97141.25;;;11.13;100.00
11936;BME280;6027;48.576;9.180;2023-04-30T06:45:49;97136.03;;;11.19;100.00
11936;BME280;6027;48.576;9.180;2023-04-30T06:48:15;97142.00;;;11.21;100.00
11936;BME280;6027;48.576;9.180;2023-04-30T06:50:41;97139.81;;;11.25;100.00
11936;BME280;6027;48.576;9.180;2023-04-30T06:53:13;97127.50;;;11.32;100.00
11936;BME280;6027;48.576;9.180;2023-04-30T06:55:43;97141.28;;;11.27;100.00
11936;BME280;6027;48.576;9.180;2023-04-30T06:58:09;97138.47;;;11.29;100.00
11936;BME280;6027;48.576;9.180;2023-04-30T07:00:35;97138.75;;;11.34;100.00
11936;BME280;6027;48.576;9.180;2023-04-30T07:03:00;97128.69;;;11.44;100.00
11936;BME280;6027;48.576;9.180;2023-04-30T07:05:31;97133.91;;;11.52;100.00
11936;BME280;6027;48.576;9.180;2023-04-30T07:07:57;97134.56;;;11.54;100.00
11936;BME280;6027;48.576;9.180;2023-04-30T07:10:23;97126.22;;;11.57;100.00
11936;BME280;6027;48.576;9.180;2023-04-30T07:12:48;97131.00;;;11.62;100.00
11936;BME280;6027;48.576;9.180;2023-04-30T07:15:14;97134.09;;;11.65;100.00
11936;BME280;6027;48.576;9.180;2023-04-30T07:17:39;97120.31;;;11.70;100.00
11936;BME280;6027;48.576;9.180;2023-04-30T07:20:07;97131.66;;;11.79;100.00
11936;BME280;6027;48.576;9.180;2023-04-30T07:22:32;97131.75;;;11.85;100.00
11936;BME280;6027;48.576;9.180;2023-04-30T07:24:58;97122.69;;;11.94;100.00
11936;BME280;6027;48.576;9.180;2023-04-30T07:27:25;97116.09;;;12.05;100.00
11936;BME280;6027;48.576;9.180;2023-04-30T07:29:50;97121.56;;;12.18;100.00
11936;BME280;6027;48.576;9.180;2023-04-30T07:32:16;97110.56;;;12.21;100.00
11936;BME280;6027;48.576;9.180;2023-04-30T07:34:41;97121.19;;;12.21;100.00
11936;BME280;6027;48.576;9.180;2023-04-30T07:37:08;97118.44;;;12.29;100.00
11936;BME280;6027;48.576;9.180;2023-04-30T07:39:34;97115.59;;;12.31;100.00
11936;BME280;6027;48.576;9.180;2023-04-30T07:42:01;97115.00;;;12.50;100.00
11936;BME280;6027;48.576;9.180;2023-04-30T07:44:27;97112.75;;;12.54;100.00
11936;BME280;6027;48.576;9.180;2023-04-30T07:46:53;97110.44;;;12.65;100.00
11936;BME280;6027;48.576;9.180;2023-04-30T07:49:18;97103.53;;;12.71;100.00
11936;BME280;6027;48.576;9.180;2023-04-30T07:51:44;97107.44;;;12.75;100.00
11936;BME280;6027;48.576;9.180;2023-04-30T07:54:10;97100.44;;;12.89;100.00
11936;BME280;6027;48.576;9.180;2023-04-30T07:56:35;97101.56;;;13.01;100.00
11936;BME280;6027;48.576;9.180;2023-04-30T07:59:01;97112.44;;;13.06;99.98
11936;BME280;6027;48.576;9.180;2023-04-30T08:01:26;97112.25;;;13.07;99.58
11936;BME280;6027;48.576;9.180;2023-04-30T08:03:51;97104.69;;;13.11;97.85
11936;BME280;6027;48.576;9.180;2023-04-30T08:06:17;97118.78;;;13.26;97.49
11936;BME280;6027;48.576;9.180;2023-04-30T08:08:43;97120.63;;;13.26;98.14
11936;BME280;6027;48.576;9.180;2023-04-30T08:13:36;97108.44;;;13.38;91.52
11936;BME280;6027;48.576;9.180;2023-04-30T08:16:01;97111.72;;;13.40;87.58
11936;BME280;6027;48.576;9.180;2023-04-30T08:18:28;97115.22;;;13.47;91.98
11936;BME280;6027;48.576;9.180;2023-04-30T08:20:53;97103.69;;;13.33;84.27
11936;BME280;6027;48.576;9.180;2023-04-30T08:23:19;97112.19;;;13.50;88.87
11936;BME280;6027;48.576;9.180;2023-04-30T08:25:44;97115.63;;;13.44;84.94
11936;BME280;6027;48.576;9.180;2023-04-30T08:28:10;97117.22;;;13.38;86.71
11936;BME280;6027;48.576;9.180;2023-04-30T08:30:35;97123.38;;;13.39;85.84
11936;BME280;6027;48.576;9.180;2023-04-30T08:33:00;97118.44;;;13.36;84.53
11936;BME280;6027;48.576;9.180;2023-04-30T08:35:26;97115.66;;;13.51;83.65
11936;BME280;6027;48.576;9.180;2023-04-30T08:37:53;97116.28;;;13.53;85.50
11936;BME280;6027;48.576;9.180;2023-04-30T08:40:19;97117.13;;;13.53;80.38
11936;BME280;6027;48.576;9.180;2023-04-30T08:42:49;97110.84;;;13.67;81.31
11936;BME280;6027;48.576;9.180;2023-04-30T08:45:18;97114.38;;;13.74;80.53
11936;BME280;6027;48.576;9.180;2023-04-30T08:47:44;97118.94;;;13.80;79.46
11936;BME280;6027;48.576;9.180;2023-04-30T08:50:10;97119.38;;;13.84;80.45
11936;BME280;6027;48.576;9.180;2023-04-30T08:52:36;97124.06;;;13.89;78.52
11936;BME280;6027;48.576;9.180;2023-04-30T08:55:06;97113.88;;;13.92;77.47
11936;BME280;6027;48.576;9.180;2023-04-30T08:57:31;97123.88;;;13.83;78.55
11936;BME280;6027;48.576;9.180;2023-04-30T08:59:57;97115.69;;;13.85;78.32
11936;BME280;6027;48.576;9.180;2023-04-30T09:02:22;97114.06;;;13.91;77.57
11936;BME280;6027;48.576;9.180;2023-04-30T09:04:48;97112.47;;;13.96;75.96
11936;BME280;6027;48.576;9.180;2023-04-30T09:07:14;97121.31;;;14.03;76.89
11936;BME280;6027;48.576;9.180;2023-04-30T09:09:40;97118.22;;;14.00;71.97
11936;BME280;6027;48.576;9.180;2023-04-30T09:12:16;97106.34;;;14.09;73.70
11936;BME280;6027;48.576;9.180;2023-04-30T09:15:09;97116.00;;;14.10;74.03
11936;BME280;6027;48.576;9.180;2023-04-30T09:17:35;97109.84;;;14.09;75.02
11936;BME280;6027;48.576;9.180;2023-04-30T09:20:11;97119.47;;;14.10;72.22
11936;BME280;6027;48.576;9.180;2023-04-30T09:22:38;97112.13;;;14.12;71.62
11936;BME280;6027;48.576;9.180;2023-04-30T09:25:04;97113.16;;;14.18;71.07
11936;BME280;6027;48.576;9.180;2023-04-30T09:27:30;97117.09;;;14.22;69.61
11936;BME280;6027;48.576;9.180;2023-04-30T09:29:55;97107.81;;;14.11;69.04
11936;BME280;6027;48.576;9.180;2023-04-30T09:32:21;97110.47;;;14.11;70.86
11936;BME280;6027;48.576;9.180;2023-04-30T09:34:46;97111.13;;;14.20;72.31
11936;BME280;6027;48.576;9.180;2023-04-30T09:37:12;97118.09;;;14.28;74.62
11936;BME280;6027;48.576;9.180;2023-04-30T09:39:52;97122.88;;;14.39;75.39
11936;BME280;6027;48.576;9.180;2023-04-30T09:42:18;97118.22;;;14.47;73.89
11936;BME280;6027;48.576;9.180;2023-04-30T09:44:45;97113.06;;;14.46;71.29
11936;BME280;6027;48.576;9.180;2023-04-30T09:49:40;97116.53;;;14.40;68.15
11936;BME280;6027;48.576;9.180;2023-04-30T09:52:07;97113.84;;;14.33;70.31
11936;BME280;6027;48.576;9.180;2023-04-30T09:54:33;97110.78;;;14.36;68.45
11936;BME280;6027;48.576;9.180;2023-04-30T09:57:01;97117.19;;;14.42;69.58
11936;BME280;6027;48.576;9.180;2023-04-30T09:59:33;97111.03;;;14.41;68.65
11936;BME280;6027;48.576;9.180;2023-04-30T10:02:07;97115.09;;;14.37;69.23
11936;BME280;6027;48.576;9.180;2023-04-30T10:04:37;97113.91;;;14.46;71.00
11936;BME280;6027;48.576;9.180;2023-04-30T10:07:15;97114.16;;;14.58;66.80
11936;BME280;6027;48.576;9.180;2023-04-30T10:09:49;97108.59;;;14.53;67.50
11936;BME280;6027;48.576;9.180;2023-04-30T10:12:20;97106.34;;;14.50;68.49
11936;BME280;6027;48.576;9.180;2023-04-30T10:14:51;97112.31;;;14.59;68.65
11936;BME280;6027;48.576;9.180;2023-04-30T10:17:19;97113.09;;;14.52;67.91
11936;BME280;6027;48.576;9.180;2023-04-30T10:19:50;97104.47;;;14.44;66.30
11936;BME280;6027;48.576;9.180;2023-04-30T10:22:18;97115.53;;;14.41;66.94
11936;BME280;6027;48.576;9.180;2023-04-30T10:24:47;97112.88;;;14.47;68.72
11936;BME280;6027;48.576;9.180;2023-04-30T10:27:13;97111.63;;;14.43;67.00
11936;BME280;6027;48.576;9.180;2023-04-30T10:29:39;97110.97;;;14.35;66.96
11936;BME280;6027;48.576;9.180;2023-04-30T10:32:05;97114.91;;;14.45;68.32
11936;BME280;6027;48.576;9.180;2023-04-30T10:39:46;97106.97;;;14.52;64.68
11936;BME280;6027;48.576;9.180;2023-04-30T10:42:12;97103.50;;;14.65;67.62
11936;BME280;6027;48.576;9.180;2023-04-30T10:44:38;97096.34;;;14.72;64.96
11936;BME280;6027;48.576;9.180;2023-04-30T10:47:05;97104.56;;;14.77;64.08
11936;BME280;6027;48.576;9.180;2023-04-30T10:49:31;97100.81;;;14.65;64.25
11936;BME280;6027;48.576;9.180;2023-04-30T10:51:59;97099.56;;;14.47;61.18
11936;BME280;6027;48.576;9.180;2023-04-30T10:54:35;97092.63;;;14.53;63.56
11936;BME280;6027;48.576;9.180;2023-04-30T10:57:12;97087.09;;;14.55;63.47
11936;BME280;6027;48.576;9.180;2023-04-30T10:59:44;97088.53;;;14.57;61.63
11936;BME280;6027;48.576;9.180;2023-04-30T11:02:12;97087.50;;;14.58;61.33
11936;BME280;6027;48.576;9.180;2023-04-30T11:05:07;97083.41;;;14.56;62.55
11936;BME280;6027;48.576;9.180;2023-04-30T11:07:33;97077.28;;;14.62;62.75
11936;BME280;6027;48.576;9.180;2023-04-30T11:10:00;97078.28;;;14.67;61.59
11936;BME280;6027;48.576;9.180;2023-04-30T11:12:26;97078.31;;;14.74;62.33
11936;BME280;6027;48.576;9.180;2023-04-30T11:14:59;97076.25;;;14.76;61.75
11936;BME280;6027;48.576;9.180;2023-04-30T11:17:26;97078.50;;;14.72;64.37
11936;BME280;6027;48.576;9.180;2023-04-30T11:19:52;97078.31;;;14.74;58.96
11936;BME280;6027;48.576;9.180;2023-04-30T11:22:21;97077.91;;;14.77;58.45
11936;BME280;6027;48.576;9.180;2023-04-30T11:25:09;97084.06;;;14.91;57.04
11936;BME280;6027;48.576;9.180;2023-04-30T11:27:41;97078.72;;;14.91;58.45
11936;BME280;6027;48.576;9.180;2023-04-30T11:30:15;97075.03;;;14.98;58.26
11936;BME280;6027;48.576;9.180;2023-04-30T11:32:44;97075.03;;;14.98;56.27
11936;BME280;6027;48.576;9.180;2023-04-30T11:35:15;97060.88;;;15.04;58.08
11936;BME280;6027;48.576;9.180;2023-04-30T11:37:42;97066.00;;;15.12;59.98
11936;BME280;6027;48.576;9.180;2023-04-30T11:40:10;97063.56;;;15.11;57.75
11936;BME280;6027;48.576;9.180;2023-04-30T11:42:38;97063.75;;;15.09;57.27
11936;BME280;6027;48.576;9.180;2023-04-30T11:45:05;97061.50;;;15.06;57.02
11936;BME280;6027;48.576;9.180;2023-04-30T11:50:05;97045.91;;;15.10;57.07
11936;BME280;6027;48.576;9.180;2023-04-30T11:52:30;97050.63;;;15.14;56.54
11936;BME280;6027;48.576;9.180;2023-04-30T11:54:56;97043.25;;;15.16;55.59
11936;BME280;6027;48.576;9.180;2023-04-30T11:57:23;97039.94;;;15.21;56.53
11936;BME280;6027;48.576;9.180;2023-04-30T11:59:49;97045.88;;;15.23;57.35
11936;BME280;6027;48.576;9.180;2023-04-30T12:02:15;97037.69;;;15.25;56.63
11936;BME280;6027;48.576;9.180;2023-04-30T12:04:42;97040.16;;;15.19;55.73
11936;BME280;6027;48.576;9.180;2023-04-30T12:07:08;97038.13;;;15.15;56.41
11936;BME280;6027;48.576;9.180;2023-04-30T12:09:54;97036.06;;;15.10;55.88
11936;BME280;6027;48.576;9.180;2023-04-30T12:12:29;97044.44;;;15.20;56.76
11936;BME280;6027;48.576;9.180;2023-04-30T12:14:56;97037.69;;;15.31;58.02
11936;BME280;6027;48.576;9.180;2023-04-30T12:17:34;97038.25;;;15.53;55.52
11936;BME280;6027;48.576;9.180;2023-04-30T12:20:00;97039.91;;;15.41;54.73
11936;BME280;6027;48.576;9.180;2023-04-30T12:22:26;97040.50;;;15.49;55.54
11936;BME280;6027;48.576;9.180;2023-04-30T12:24:53;97032.34;;;15.38;53.99
11936;BME280;6027;48.576;9.180;2023-04-30T12:27:20;97030.66;;;15.50;56.12
11936;BME280;6027;48.576;9.180;2023-04-30T12:29:46;97035.56;;;15.60;53.98
11936;BME280;6027;48.576;9.180;2023-04-30T12:32:17;97030.38;;;15.78;56.07
11936;BME280;6027;48.576;9.180;2023-04-30T12:34:43;97034.28;;;15.82;54.48
11936;BME280;6027;48.576;9.180;2023-04-30T12:37:09;97032.25;;;15.77;55.36
11936;BME280;6027;48.576;9.180;2023-04-30T12:39:35;97028.94;;;15.82;53.21
11936;BME280;6027;48.576;9.180;2023-04-30T12:42:01;97026.03;;;15.97;54.07
11936;BME280;6027;48.576;9.180;2023-04-30T12:44:28;97029.28;;;15.99;52.63
11936;BME280;6027;48.576;9.180;2023-04-30T12:46:54;97025.34;;;16.08;52.76
11936;BME280;6027;48.576;9.180;2023-04-30T12:49:33;97017.13;;;16.09;53.59
11936;BME280;6027;48.576;9.180;2023-04-30T12:52:07;97012.41;;;16.05;53.83
11936;BME280;6027;48.576;9.180;2023-04-30T12:54:34;97009.75;;;16.05;54.06
11936;BME280;6027;48.576;9.180;2023-04-30T12:57:03;97005.81;;;16.14;54.26
11936;BME280;6027;48.576;9.180;2023-04-30T12:59:31;97000.41;;;16.20;52.38
11936;BME280;6027;48.576;9.180;2023-04-30T13:02:13;96994.19;;;16.33;53.53
11936;BME280;6027;48.576;9.180;2023-04-30T13:04:42;96996.75;;;16.46;53.60
11936;BME280;6027;48.576;9.180;2023-04-30T13:07:08;96997.75;;;16.52;53.62
11936;BME280;6027;48.576;9.180;2023-04-30T13:09:35;96999.81;;;16.50;54.61
11936;BME280;6027;48.576;9.180;2023-04-30T13:12:01;97001.91;;;16.41;53.54
11936;BME280;6027;48.576;9.180;2023-04-30T13:14:28;96990.28;;;16.29;53.12
11936;BME280;6027;48.576;9.180;2023-04-30T13:16:53;96994.22;;;16.27;54.21
11936;BME280;6027;48.576;9.180;2023-04-30T13:19:19;96988.66;;;16.28;53.75
11936;BME280;6027;48.576;9.180;2023-04-30T13:21:45;96983.84;;;16.37;55.15
11936;BME280;6027;48.576;9.180;2023-04-30T13:24:10;96988.13;;;16.44;54.01
11936;BME280;6027;48.576;9.180;2023-04-30T13:26:36;96980.31;;;16.43;55.81
11936;BME280;6027;48.576;9.180;2023-04-30T13:29:02;96979.25;;;16.50;54.24
11936;BME280;6027;48.576;9.180;2023-04-30T13:31:29;96982.97;;;16.74;57.34
11936;BME280;6027;48.576;9.180;2023-04-30T13:33:54;96986.16;;;16.65;50.72
11936;BME280;6027;48.576;9.180;2023-04-30T13:36:20;96991.41;;;16.46;50.73
11936;BME280;6027;48.576;9.180;2023-04-30T13:38:46;96989.59;;;16.40;51.13